createdAt,value
2018-10-06T00:02:02.356Z,8.47
2018-10-06T00:07:05.864Z,7.63
2018-10-06T00:12:09.377Z,8.13
2018-10-06T00:17:12.887Z,7.47
2018-10-06T00:22:16.553Z,8.13
2018-10-06T00:27:19.981Z,8.03
2018-10-06T00:32:23.412Z,7.50
2018-10-06T00:37:26.761Z,8.27
2018-10-06T00:42:30.131Z,7.60
2018-10-06T00:47:33.471Z,8.70
2018-10-06T00:52:36.784Z,8.17
2018-10-06T00:57:40.199Z,8.03
2018-10-06T01:02:43.684Z,8.23
2018-10-06T01:07:47.777Z,8.57
2018-10-06T01:12:51.299Z,9.23
2018-10-06T01:17:54.843Z,8.73
2018-10-06T01:22:58.192Z,9.23
2018-10-06T01:28:02.768Z,8.70
2018-10-06T01:33:06.234Z,10.03
2018-10-06T01:38:09.629Z,10.00
2018-10-06T01:43:13.253Z,9.27
2018-10-06T01:48:16.907Z,9.53
2018-10-06T01:53:20.261Z,10.07
2018-10-06T01:58:24.264Z,8.93
2018-10-06T02:03:27.951Z,10.07
2018-10-06T02:08:31.720Z,10.57
2018-10-06T02:13:35.169Z,10.67
2018-10-06T02:18:38.724Z,10.73
2018-10-06T02:23:42.632Z,10.50
2018-10-06T02:28:46.081Z,10.30
2018-10-06T02:33:49.500Z,10.27
2018-10-06T02:38:52.907Z,10.43
2018-10-06T02:43:56.281Z,9.47
2018-10-06T02:48:59.930Z,10.03
2018-10-06T02:54:03.472Z,9.80
2018-10-06T02:59:06.888Z,10.13
2018-10-06T03:04:10.208Z,9.80
2018-10-06T03:09:13.621Z,10.27
2018-10-06T03:14:17.032Z,10.57
2018-10-06T03:19:20.387Z,10.00
2018-10-06T03:26:04.621Z,11.03
2018-10-06T03:31:12.766Z,11.03
2018-10-06T03:36:16.205Z,11.37
2018-10-06T03:42:28.340Z,10.67
2018-10-06T03:47:31.701Z,11.27
2018-10-06T03:52:35.246Z,11.93
2018-10-06T03:57:38.664Z,11.03
2018-10-06T04:02:42.227Z,10.43
2018-10-06T04:07:45.604Z,10.23
2018-10-06T04:12:49.147Z,10.40
2018-10-06T04:17:52.536Z,10.47
2018-10-06T04:22:55.894Z,10.90
2018-10-06T04:27:59.629Z,10.47
2018-10-06T04:33:03.611Z,11.83
2018-10-06T04:38:07.089Z,12.20
2018-10-06T04:43:10.523Z,11.80
2018-10-06T04:48:14.737Z,10.70
2018-10-06T04:53:18.138Z,11.13
2018-10-06T04:58:21.420Z,10.90
2018-10-06T05:03:24.902Z,11.37
2018-10-06T05:08:28.258Z,11.40
2018-10-06T05:13:31.686Z,10.93
2018-10-06T05:18:35.081Z,11.90
2018-10-06T05:23:38.620Z,10.93
2018-10-06T05:28:41.880Z,11.90
2018-10-06T05:33:45.360Z,12.77
2018-10-06T05:38:48.950Z,13.03
2018-10-06T05:43:52.475Z,12.60
2018-10-06T05:48:55.880Z,13.03
2018-10-06T05:53:59.257Z,12.20
2018-10-06T05:59:02.783Z,12.60
2018-10-06T06:04:06.502Z,12.27
2018-10-06T06:09:10.005Z,12.60
2018-10-06T06:14:13.549Z,12.33
2018-10-06T06:19:16.952Z,12.87
2018-10-06T06:24:20.505Z,12.37
2018-10-06T06:29:23.859Z,12.83
2018-10-06T06:34:27.242Z,12.23
2018-10-06T06:39:30.781Z,13.10
2018-10-06T06:44:34.611Z,13.10
2018-10-06T06:49:37.774Z,13.07
2018-10-06T06:54:41.405Z,11.97
2018-10-06T06:59:45.033Z,12.57
2018-10-06T07:04:48.704Z,12.63
2018-10-06T07:09:52.330Z,12.10
2018-10-06T07:14:55.766Z,12.27
2018-10-06T07:19:59.505Z,11.50
2018-10-06T07:25:03.033Z,13.13
2018-10-06T07:30:06.569Z,12.30
2018-10-06T07:35:10.114Z,12.40
2018-10-06T07:40:13.751Z,13.20
2018-10-06T07:45:17.449Z,13.03
2018-10-06T07:50:20.890Z,11.93
2018-10-06T07:55:24.526Z,11.43
2018-10-06T08:00:28.137Z,10.93
2018-10-06T08:05:31.649Z,12.33
2018-10-06T08:10:35.606Z,11.67
2018-10-06T08:15:39.110Z,8.90
2018-10-06T08:20:42.770Z,10.97
2018-10-06T08:25:46.584Z,13.00
2018-10-06T08:30:50.246Z,13.53
2018-10-06T08:35:53.831Z,11.03
2018-10-06T08:40:57.188Z,13.87
2018-10-06T08:46:00.836Z,12.93
2018-10-06T08:51:04.231Z,15.40
2018-10-06T08:56:07.721Z,14.23
2018-10-06T09:01:11.286Z,14.93
2018-10-06T09:06:14.702Z,14.57
2018-10-06T09:11:18.088Z,16.30
2018-10-06T09:16:21.559Z,13.77
2018-10-06T09:21:25.041Z,15.43
2018-10-06T09:26:28.408Z,17.37
2018-10-06T09:31:32.045Z,14.73
2018-10-06T09:36:35.508Z,14.77
2018-10-06T09:41:38.903Z,15.10
2018-10-06T09:46:42.272Z,14.73
2018-10-06T09:51:45.771Z,13.67
2018-10-06T09:56:49.163Z,13.97
2018-10-06T10:01:55.609Z,13.93
2018-10-06T10:06:59.003Z,12.83
2018-10-06T10:12:02.363Z,12.73
2018-10-06T10:17:05.891Z,12.73
2018-10-06T10:22:09.414Z,12.83
2018-10-06T10:27:12.809Z,15.20
2018-10-06T10:32:16.211Z,14.20
2018-10-06T10:37:19.621Z,14.83
2018-10-06T10:42:23.236Z,14.43
2018-10-06T10:47:26.665Z,14.17
2018-10-06T10:52:31.853Z,14.10
2018-10-06T10:57:35.937Z,13.23
2018-10-06T11:02:40.011Z,13.33
2018-10-06T11:07:44.910Z,13.70
2018-10-06T11:12:49.218Z,12.20
2018-10-06T11:17:53.197Z,11.77
2018-10-06T11:22:56.972Z,12.60
2018-10-06T11:28:00.445Z,12.80
2018-10-06T11:33:03.918Z,12.47
2018-10-06T11:38:08.013Z,12.40
2018-10-06T11:43:12.640Z,13.93
2018-10-06T11:48:17.016Z,12.43
2018-10-06T11:53:21.107Z,12.90
2018-10-06T11:58:24.953Z,12.60
2018-10-06T12:03:28.696Z,12.43
2018-10-06T12:08:33.197Z,13.13
2018-10-06T12:13:37.838Z,13.97
2018-10-06T12:18:42.354Z,12.40
2018-10-06T12:23:46.476Z,13.43
2018-10-06T12:28:51.602Z,14.00
2018-10-06T12:33:55.810Z,14.30
2018-10-06T12:39:00.697Z,15.03
2018-10-06T12:44:05.261Z,13.17
2018-10-06T12:49:09.720Z,13.00
2018-10-06T12:59:29.715Z,11.83
2018-10-06T13:04:33.145Z,11.43
2018-10-06T13:09:36.601Z,15.43
2018-10-06T13:14:40.278Z,12.70
2018-10-06T13:19:44.426Z,12.10
2018-10-06T13:24:47.975Z,11.90
2018-10-06T13:29:51.518Z,11.57
2018-10-06T13:34:55.096Z,11.50
2018-10-06T13:39:58.716Z,11.47
2018-10-06T13:45:02.276Z,11.37
2018-10-06T13:50:05.844Z,11.70
2018-10-06T13:55:09.721Z,10.43
2018-10-06T14:00:13.207Z,10.33
2018-10-06T14:05:16.801Z,11.23
2018-10-06T14:10:20.412Z,9.43
2018-10-06T14:15:23.935Z,9.87
2018-10-06T14:20:28.222Z,9.87
2018-10-06T14:25:31.798Z,11.53
2018-10-06T14:30:35.445Z,10.10
2018-10-06T14:35:38.903Z,10.30
2018-10-06T14:40:42.783Z,10.80
2018-10-06T14:45:46.509Z,10.13
2018-10-06T14:50:50.094Z,9.83
2018-10-06T14:55:53.554Z,10.63
2018-10-06T15:00:57.019Z,9.73
2018-10-06T15:06:00.364Z,9.13
2018-10-06T15:11:04.018Z,9.50
2018-10-06T15:16:07.745Z,9.40
2018-10-06T15:21:11.232Z,9.13
2018-10-06T15:26:14.667Z,9.93
2018-10-06T15:31:18.055Z,9.07
2018-10-06T15:36:21.476Z,9.30
2018-10-06T15:41:24.976Z,13.10
2018-10-06T15:46:28.363Z,11.67
2018-10-06T15:51:31.750Z,11.67
2018-10-06T15:56:35.237Z,13.20
2018-10-06T16:01:38.732Z,11.23
2018-10-06T16:06:42.196Z,11.73
2018-10-06T16:11:45.845Z,8.70
2018-10-06T16:16:49.404Z,9.77
2018-10-06T16:21:59.521Z,8.80
2018-10-06T16:27:03.040Z,8.57
2018-10-06T16:32:06.683Z,8.87
2018-10-06T16:37:10.537Z,9.30
2018-10-06T16:42:14.682Z,9.10
2018-10-06T16:47:18.593Z,8.60
2018-10-06T16:52:22.171Z,9.77
2018-10-06T16:57:25.574Z,10.67
2018-10-06T17:02:29.064Z,9.47
2018-10-06T17:07:34.368Z,9.77
2018-10-06T17:12:38.003Z,12.37
2018-10-06T17:17:41.498Z,12.93
2018-10-06T17:22:45.020Z,13.10
2018-10-06T17:27:48.454Z,16.27
2018-10-06T17:32:52.127Z,16.50
2018-10-06T17:37:55.652Z,16.90
2018-10-06T17:42:59.131Z,15.37
2018-10-06T17:48:02.740Z,12.97
2018-10-06T17:53:06.231Z,12.73
2018-10-06T17:58:09.771Z,14.67
2018-10-06T18:03:13.366Z,12.80
2018-10-06T18:08:16.935Z,13.17
2018-10-06T18:13:21.107Z,12.90
2018-10-06T18:18:24.459Z,14.03
2018-10-06T18:23:27.860Z,14.37
2018-10-06T18:28:31.440Z,14.30
2018-10-06T18:33:34.820Z,18.53
2018-10-06T18:38:38.227Z,22.07
2018-10-06T18:43:41.946Z,37.80
2018-10-06T18:48:45.685Z,40.33
2018-10-06T18:53:49.161Z,30.43
2018-10-06T18:58:52.597Z,31.67
2018-10-06T19:03:56.084Z,29.33
2018-10-06T19:08:59.596Z,30.37
2018-10-06T19:14:03.471Z,27.17
2018-10-06T19:19:07.039Z,27.57
2018-10-06T19:24:10.400Z,27.63
2018-10-06T19:29:13.914Z,28.00
2018-10-06T19:34:17.328Z,24.83
2018-10-06T19:39:20.798Z,25.40
2018-10-06T19:44:24.177Z,22.67
2018-10-06T19:49:27.817Z,22.20
2018-10-06T19:54:31.928Z,23.13
2018-10-06T19:59:35.361Z,21.40
2018-10-06T20:04:39.024Z,19.67
2018-10-06T20:09:42.516Z,18.00
2018-10-06T20:14:46.145Z,19.20
2018-10-06T20:19:49.653Z,19.27
2018-10-06T20:24:53.087Z,16.50
2018-10-06T20:29:56.604Z,15.80
2018-10-06T20:35:00.230Z,15.10
2018-10-06T20:40:04.024Z,14.97
2018-10-06T20:45:07.481Z,14.40
2018-10-06T20:50:10.934Z,15.03
2018-10-06T20:55:18.327Z,15.03
2018-10-06T21:00:21.708Z,13.60
2018-10-06T21:05:25.439Z,12.87
2018-10-06T21:10:29.132Z,11.60
2018-10-06T21:15:32.624Z,11.77
2018-10-06T21:20:36.081Z,11.37
2018-10-06T21:25:39.571Z,11.57
2018-10-06T21:30:42.921Z,11.63
2018-10-06T21:35:51.804Z,13.03
2018-10-06T21:40:56.061Z,12.47
2018-10-06T21:45:59.423Z,14.00
2018-10-06T21:51:03.321Z,15.00
2018-10-06T21:56:07.031Z,16.03
2018-10-06T22:01:12.141Z,19.07
2018-10-06T22:06:15.569Z,18.63
2018-10-06T22:11:18.980Z,21.13
2018-10-06T22:16:23.425Z,23.53
2018-10-06T22:21:26.848Z,24.97
2018-10-06T22:26:30.323Z,26.13
2018-10-06T22:31:33.952Z,25.57
2018-10-06T22:36:37.484Z,24.17
2018-10-06T22:41:40.977Z,27.30
2018-10-06T22:46:44.521Z,27.10
2018-10-06T22:51:48.041Z,27.47
2018-10-06T22:56:51.759Z,29.80
2018-10-06T23:01:55.073Z,29.07
2018-10-06T23:06:58.588Z,30.20
2018-10-06T23:12:02.115Z,28.20
2018-10-06T23:17:05.757Z,32.27
2018-10-06T23:22:09.456Z,32.30
2018-10-06T23:27:12.976Z,32.90
2018-10-06T23:32:16.393Z,34.77
2018-10-06T23:37:19.798Z,35.60
2018-10-06T23:42:23.235Z,35.83
2018-10-06T23:47:26.809Z,35.60
2018-10-06T23:52:30.178Z,37.87
2018-10-06T23:57:33.498Z,41.37
